Terminal Aerodrome Forecast
Issued by NWS Wilmington, OH

Current Version | Previous Version | Graphics & Text | Print | Product List | Glossary On
Versions: 1 2 3 4 5 6 7 8 9 10 11 12 13 14 15 16 17 18 19 20 21 22 23 24 25 26 27 28 29 30
000
FTUS41 KILN 240204 AAA
TAFDAY
TAF AMD
KDAY 240204Z 2402/2424 32008KT P6SM OVC018
     FM240400 33008KT 5SM BR OVC008
     FM240600 02007KT 5SM BR VCSH OVC005
     FM241100 05008KT 5SM -SHRA OVC008
     FM241600 07010KT P6SM -SHRA OVC012
     FM241900 08011KT P6SM VCSH OVC022=

USA.gov is the U.S. government's official web portal to all federal, state and local government web resources and services.